Time;durP1;ratioP1;P1;durP2;ratioP2;P2;SDS_P1;SDS_P2;PMS_P1;PMS_P2;Temp;Humidity;BMP_temperature;BMP_pressure;BME280_temperature;BME280_humidity;BME280_pressure;Samples;Min_cycle;Max_cycle;Signal;HPM_P1;HPM_P2
2023/01/05 00:01:31;;;;;;;6.10;4.93;;;7.70;90.00;;;;;;5007407;28;20199;-78
2023/01/05 00:03:57;;;;;;;8.90;6.00;;;7.70;90.30;;;;;;5003830;28;20209;-79
2023/01/05 00:06:23;;;;;;;10.57;6.47;;;7.70;90.10;;;;;;4993191;28;20189;-79
2023/01/05 00:08:48;;;;;;;10.40;6.30;;;7.80;90.20;;;;;;5007338;28;20181;-79
2023/01/05 00:22:29;;;;;;;8.87;4.87;;;7.90;90.10;;;;;;5007887;28;20187;-78
2023/01/05 00:25:14;;;;;;;6.90;5.07;;;7.90;89.90;;;;;;5006721;28;20277;-77
2023/01/05 00:27:41;;;;;;;5.00;4.50;;;7.90;89.90;;;;;;5007275;28;20185;-78
2023/01/05 00:30:09;;;;;;;5.60;4.53;;;7.90;89.60;;;;;;5008601;28;20200;-79
2023/01/05 00:32:35;;;;;;;10.47;5.13;;;7.90;89.80;;;;;;5007662;28;20189;-79
2023/01/05 00:35:01;;;;;;;7.30;4.67;;;8.00;89.80;;;;;;5007760;28;20264;-79
2023/01/05 00:37:30;;;;;;;5.90;4.50;;;8.00;89.70;;;;;;5006008;28;20188;-77
2023/01/05 00:39:56;;;;;;;6.30;4.60;;;8.00;89.60;;;;;;4998815;28;20242;-78
2023/01/05 00:42:22;;;;;;;7.17;4.83;;;8.00;89.60;;;;;;5008991;28;20184;-79
2023/01/05 00:44:48;;;;;;;6.87;4.80;;;8.00;89.40;;;;;;5008523;28;20702;-79
2023/01/05 00:47:14;;;;;;;9.57;4.73;;;8.00;89.30;;;;;;5006801;28;20185;-78
2023/01/05 00:49:40;;;;;;;7.50;4.87;;;8.00;89.10;;;;;;5005194;28;20196;-78
2023/01/05 00:52:06;;;;;;;5.73;4.73;;;8.00;89.30;;;;;;5007458;28;20288;-79
2023/01/05 00:54:32;;;;;;;7.27;4.93;;;8.00;89.10;;;;;;5008002;28;20197;-79
2023/01/05 00:56:58;;;;;;;7.63;5.10;;;8.00;89.10;;;;;;5006936;28;20615;-78
2023/01/05 00:59:23;;;;;;;7.40;4.50;;;8.00;89.10;;;;;;5005291;28;20181;-78
2023/01/05 01:01:50;;;;;;;6.63;4.60;;;8.10;89.00;;;;;;5006557;28;20668;-78
2023/01/05 01:04:18;;;;;;;9.63;5.37;;;8.10;89.10;;;;;;5011448;28;20209;-78
2023/01/05 01:06:44;;;;;;;5.00;4.40;;;8.10;89.10;;;;;;4998773;28;20181;-79
2023/01/05 01:09:10;;;;;;;7.67;4.60;;;8.10;89.00;;;;;;5004763;28;20273;-78
2023/01/05 01:11:37;;;;;;;5.20;4.40;;;8.10;88.90;;;;;;5006437;28;20185;-80
2023/01/05 01:14:04;;;;;;;6.90;4.33;;;8.20;88.90;;;;;;5006825;28;20515;-80
2023/01/05 01:16:30;;;;;;;7.17;5.03;;;8.10;88.80;;;;;;5005433;28;20184;-80
2023/01/05 01:18:56;;;;;;;7.57;5.23;;;8.20;88.80;;;;;;4999237;28;20250;-78
2023/01/05 01:21:22;;;;;;;8.37;5.10;;;8.20;88.80;;;;;;5004666;28;20198;-78
2023/01/05 01:23:47;;;;;;;10.63;4.83;;;8.20;88.70;;;;;;5000055;28;20227;-78
2023/01/05 01:26:13;;;;;;;6.03;4.07;;;8.20;88.60;;;;;;5008329;28;20268;-78
2023/01/05 01:28:39;;;;;;;6.20;4.90;;;8.20;88.60;;;;;;5005201;28;20196;-78
2023/01/05 01:31:05;;;;;;;8.10;5.07;;;8.20;88.50;;;;;;5001427;28;20268;-78
2023/01/05 01:33:31;;;;;;;6.03;4.53;;;8.20;88.50;;;;;;5001077;28;20560;-78
2023/01/05 01:35:57;;;;;;;5.67;4.23;;;8.20;88.50;;;;;;5006450;28;20177;-77
2023/01/05 01:38:23;;;;;;;7.17;4.57;;;8.30;88.30;;;;;;5007195;28;20193;-78
2023/01/05 01:40:49;;;;;;;5.00;4.37;;;8.30;88.10;;;;;;5006027;28;20292;-78
2023/01/05 01:43:18;;;;;;;8.83;5.40;;;8.30;88.10;;;;;;5007753;28;20235;-78
2023/01/05 01:45:44;;;;;;;5.77;4.30;;;8.30;88.10;;;;;;5001540;28;20236;-78
2023/01/05 01:48:16;;;;;;;6.07;4.87;;;8.30;87.80;;;;;;4998096;28;20181;-78
2023/01/05 01:50:50;;;;;;;5.20;4.27;;;8.30;87.60;;;;;;4987399;28;20189;-79
2023/01/05 01:53:37;;;;;;;5.63;3.57;;;8.30;87.40;;;;;;5006723;28;20189;-79
2023/01/05 01:56:05;;;;;;;7.50;4.67;;;8.40;87.50;;;;;;5005412;28;20263;-79
2023/01/05 01:58:31;;;;;;;5.33;4.30;;;8.40;87.50;;;;;;5007363;28;20192;-78
2023/01/05 02:01:01;;;;;;;5.33;4.60;;;8.40;87.80;;;;;;5005226;28;20273;-77
2023/01/05 02:03:29;;;;;;;7.37;4.90;;;8.40;87.60;;;;;;4987388;28;20181;-78
2023/01/05 02:05:55;;;;;;;6.27;4.27;;;8.40;87.50;;;;;;5005429;28;20608;-78
2023/01/05 02:08:30;;;;;;;7.43;4.50;;;8.40;87.40;;;;;;5011464;28;20181;-78
2023/01/05 02:11:04;;;;;;;6.80;4.77;;;8.40;87.30;;;;;;5006378;28;20267;-78
2023/01/05 02:14:04;;;;;;;5.00;4.33;;;8.40;87.20;;;;;;5006344;28;20183;-78
2023/01/05 02:16:44;;;;;;;5.87;4.83;;;8.40;86.90;;;;;;5007237;28;20189;-78
2023/01/05 02:19:41;;;;;;;7.53;4.73;;;8.30;87.10;;;;;;5001147;28;20195;-79
2023/01/05 02:22:06;;;;;;;8.37;4.90;;;8.30;87.00;;;;;;5006598;28;20250;-78
2023/01/05 02:24:55;;;;;;;6.13;4.50;;;8.30;87.30;;;;;;5008054;28;20223;-78
2023/01/05 02:27:36;;;;;;;5.63;4.30;;;8.30;86.90;;;;;;5012143;28;20261;-80
2023/01/05 02:30:32;;;;;;;6.23;4.13;;;8.30;87.00;;;;;;5001504;28;20318;-79
2023/01/05 02:33:19;;;;;;;5.40;4.27;;;8.30;86.90;;;;;;5003323;28;20336;-78
2023/01/05 02:35:56;;;;;;;5.23;3.90;;;8.30;86.90;;;;;;5000262;28;21029;-79
2023/01/05 02:38:33;;;;;;;5.17;4.27;;;8.30;87.30;;;;;;5004738;28;20196;-79
2023/01/05 02:41:12;;;;;;;5.63;4.43;;;8.30;86.90;;;;;;5010215;28;20180;-79
2023/01/05 02:43:38;;;;;;;7.70;4.77;;;8.30;87.00;;;;;;5011983;28;20193;-78
2023/01/05 02:46:04;;;;;;;5.60;4.37;;;8.30;87.20;;;;;;5004395;28;20255;-78
2023/01/05 02:48:30;;;;;;;6.90;4.63;;;8.30;87.50;;;;;;4982344;28;20690;-78
2023/01/05 02:51:00;;;;;;;5.77;4.77;;;8.40;87.30;;;;;;4997861;28;20189;-78
2023/01/05 02:53:31;;;;;;;7.00;4.50;;;8.40;87.20;;;;;;5005394;28;20275;-79
2023/01/05 02:56:09;;;;;;;5.87;4.43;;;8.40;87.20;;;;;;5003711;28;20235;-79
2023/01/05 02:58:41;;;;;;;6.47;4.60;;;8.40;87.00;;;;;;5004794;28;20185;-79
2023/01/05 03:01:18;;;;;;;4.67;4.27;;;8.40;87.10;;;;;;5005830;28;20638;-79
2023/01/05 03:03:56;;;;;;;6.47;5.20;;;8.40;87.20;;;;;;5005301;28;20172;-79
2023/01/05 03:06:56;;;;;;;6.00;4.07;;;8.40;87.00;;;;;;4999967;28;20716;-78
2023/01/05 03:09:26;;;;;;;5.63;4.27;;;8.40;86.70;;;;;;5004630;28;20448;-79
2023/01/05 03:15:19;;;;;;;6.53;4.53;;;8.40;86.70;;;;;;4997318;28;20810;-79
2023/01/05 03:18:06;;;;;;;7.10;4.40;;;8.40;86.90;;;;;;5003681;28;20739;-79
2023/01/05 03:20:34;;;;;;;5.57;4.57;;;8.40;86.80;;;;;;5014621;28;20199;-79
2023/01/05 03:37:57;;;;;;;4.53;3.43;;;8.30;86.80;;;;;;5004413;28;20192;-78
2023/01/05 03:40:32;;;;;;;5.00;4.57;;;8.30;87.00;;;;;;5004020;28;20723;-78
2023/01/05 03:42:59;;;;;;;9.17;4.23;;;8.30;87.00;;;;;;5004000;28;20653;-77
2023/01/05 03:45:31;;;;;;;6.23;4.53;;;8.30;87.10;;;;;;5006624;28;20251;-78
2023/01/05 03:47:56;;;;;;;5.03;4.17;;;8.30;87.10;;;;;;5003734;28;20196;-78
2023/01/05 03:50:22;;;;;;;7.47;4.53;;;8.40;87.40;;;;;;5007411;28;20793;-78
2023/01/05 03:52:48;;;;;;;7.03;4.30;;;8.40;87.20;;;;;;5013543;28;20731;-79
2023/01/05 03:55:13;;;;;;;10.00;4.90;;;8.40;87.10;;;;;;5018052;28;20218;-78
2023/01/05 03:57:39;;;;;;;9.07;4.50;;;8.40;87.00;;;;;;5008389;28;20173;-78
2023/01/05 04:00:05;;;;;;;5.90;4.73;;;8.40;87.10;;;;;;5007767;28;20196;-78
2023/01/05 04:02:31;;;;;;;6.20;4.00;;;8.40;87.10;;;;;;5005783;28;20189;-78
2023/01/05 04:04:57;;;;;;;6.43;4.10;;;8.40;87.10;;;;;;5008690;28;20212;-77
2023/01/05 04:07:22;;;;;;;6.67;4.87;;;8.40;87.10;;;;;;5007918;28;20247;-78
2023/01/05 04:09:48;;;;;;;7.00;4.93;;;8.40;87.10;;;;;;5007912;28;20186;-78
2023/01/05 04:12:13;;;;;;;9.03;5.37;;;8.50;87.30;;;;;;5008974;28;20575;-77
2023/01/05 04:14:39;;;;;;;5.40;4.20;;;8.50;87.10;;;;;;5008209;28;20184;-80
2023/01/05 04:17:05;;;;;;;7.77;5.40;;;8.50;87.20;;;;;;5006662;28;20180;-78
2023/01/05 04:19:30;;;;;;;8.07;5.13;;;8.50;87.10;;;;;;5007367;28;20189;-80
2023/01/05 04:21:56;;;;;;;7.20;5.03;;;8.50;87.00;;;;;;4990124;28;20267;-77
2023/01/05 04:24:22;;;;;;;9.13;5.33;;;8.40;86.90;;;;;;5006385;28;20264;-79
2023/01/05 04:26:47;;;;;;;7.60;4.83;;;8.40;86.90;;;;;;5007278;28;20190;-79
2023/01/05 04:29:13;;;;;;;9.03;5.23;;;8.40;86.70;;;;;;5004023;28;20200;-79
2023/01/05 04:31:39;;;;;;;7.47;5.37;;;8.30;86.60;;;;;;5006371;28;20181;-79
2023/01/05 04:34:04;;;;;;;6.40;4.87;;;8.30;86.60;;;;;;5008164;28;20585;-79
2023/01/05 04:36:30;;;;;;;9.73;4.57;;;8.20;86.30;;;;;;5007755;28;20185;-79
2023/01/05 04:38:56;;;;;;;7.60;5.10;;;8.20;86.30;;;;;;5007604;28;20589;-79
2023/01/05 04:41:21;;;;;;;10.63;5.90;;;8.10;86.30;;;;;;5012147;28;20181;-79
2023/01/05 04:43:47;;;;;;;11.20;6.10;;;8.00;86.20;;;;;;5011985;28;20314;-80
2023/01/05 04:46:12;;;;;;;9.13;5.37;;;8.00;86.20;;;;;;5006673;28;20184;-79
2023/01/05 04:48:38;;;;;;;6.17;4.93;;;7.90;86.20;;;;;;5001628;28;20188;-79
2023/01/05 04:51:04;;;;;;;6.77;4.53;;;7.90;86.10;;;;;;5006362;28;20185;-79
2023/01/05 04:53:29;;;;;;;7.57;5.27;;;7.80;86.10;;;;;;5006628;28;20185;-78
2023/01/05 04:55:55;;;;;;;8.40;5.20;;;7.80;86.40;;;;;;5005484;28;20326;-78
2023/01/05 04:58:21;;;;;;;6.97;4.83;;;7.70;86.30;;;;;;5009386;28;20185;-80
2023/01/05 05:00:48;;;;;;;9.60;5.63;;;7.70;86.40;;;;;;5018702;28;20181;-79
2023/01/05 05:03:14;;;;;;;9.80;5.67;;;7.70;86.40;;;;;;5018976;28;20542;-78
2023/01/05 05:05:39;;;;;;;8.73;5.20;;;7.60;86.40;;;;;;5007509;28;20223;-79
2023/01/05 05:08:05;;;;;;;10.40;5.80;;;7.60;86.70;;;;;;5004384;28;20197;-78
2023/01/05 05:10:31;;;;;;;10.27;6.10;;;7.60;86.90;;;;;;5005327;28;20184;-79
2023/01/05 05:12:56;;;;;;;7.70;5.87;;;7.60;87.40;;;;;;5005291;28;20641;-79
2023/01/05 05:15:22;;;;;;;10.00;5.87;;;7.60;87.10;;;;;;5006325;28;20200;-79
2023/01/05 05:17:48;;;;;;;13.20;6.17;;;7.60;88.00;;;;;;5006900;28;20184;-79
2023/01/05 05:20:14;;;;;;;9.30;5.97;;;7.60;88.10;;;;;;5007251;28;20223;-79
2023/01/05 05:22:39;;;;;;;9.50;5.87;;;7.60;88.00;;;;;;5007029;28;20203;-79
2023/01/05 05:25:06;;;;;;;8.97;6.07;;;7.50;87.80;;;;;;5009241;28;20397;-75
2023/01/05 05:27:31;;;;;;;10.00;5.00;;;7.50;87.80;;;;;;5010991;28;20949;-75
2023/01/05 05:29:57;;;;;;;12.53;5.53;;;7.50;87.90;;;;;;5005670;28;20177;-76
2023/01/05 05:32:23;;;;;;;10.97;5.17;;;7.40;87.80;;;;;;5005640;28;20185;-75
2023/01/05 05:34:49;;;;;;;6.63;5.63;;;7.40;87.70;;;;;;5004018;28;20196;-76
2023/01/05 05:37:14;;;;;;;10.03;5.80;;;7.40;88.10;;;;;;5007281;28;20221;-82
2023/01/05 05:39:40;;;;;;;7.93;5.30;;;7.40;88.90;;;;;;5005306;28;20268;-79
2023/01/05 05:42:05;;;;;;;6.57;4.73;;;7.40;88.80;;;;;;5009782;28;20275;-79
2023/01/05 05:44:31;;;;;;;14.23;6.93;;;7.40;88.70;;;;;;5006880;28;20643;-76
2023/01/05 05:46:57;;;;;;;6.73;5.07;;;7.30;88.70;;;;;;5007375;28;20267;-77
2023/01/05 05:49:22;;;;;;;12.20;6.30;;;7.30;89.00;;;;;;5005672;28;20260;-77
2023/01/05 05:51:48;;;;;;;8.67;5.57;;;7.30;89.30;;;;;;5007250;28;20189;-77
2023/01/05 05:54:14;;;;;;;8.67;5.50;;;7.30;89.30;;;;;;5006545;28;20185;-79
2023/01/05 05:56:39;;;;;;;10.00;6.20;;;7.20;89.50;;;;;;5004971;28;20220;-77
2023/01/05 05:59:05;;;;;;;13.73;6.23;;;7.10;89.60;;;;;;5010465;28;20466;-77
2023/01/05 06:01:30;;;;;;;9.57;5.93;;;7.10;89.80;;;;;;5015100;28;20196;-77
2023/01/05 06:03:56;;;;;;;13.47;7.40;;;7.10;89.50;;;;;;5012904;28;20177;-77
2023/01/05 06:06:22;;;;;;;10.07;6.30;;;7.00;89.60;;;;;;5002585;28;20216;-73
2023/01/05 06:08:47;;;;;;;15.10;7.30;;;6.90;89.30;;;;;;5012869;28;20185;-78
2023/01/05 06:11:13;;;;;;;19.53;7.07;;;6.90;89.20;;;;;;5005891;28;20296;-77
2023/01/05 06:13:39;;;;;;;10.20;6.37;;;6.90;89.50;;;;;;4983378;28;20192;-82
2023/01/05 06:16:05;;;;;;;16.23;6.80;;;6.90;89.60;;;;;;5003154;28;20561;-81
2023/01/05 06:18:30;;;;;;;9.83;6.63;;;6.80;89.60;;;;;;5003403;28;20177;-76
2023/01/05 06:20:56;;;;;;;7.77;6.47;;;6.80;89.70;;;;;;5003042;28;20189;-76
2023/01/05 06:23:21;;;;;;;8.20;6.03;;;6.80;90.00;;;;;;5006918;28;20269;-80
2023/01/05 06:25:47;;;;;;;14.70;6.77;;;6.80;89.80;;;;;;5005743;28;20694;-79
2023/01/05 06:28:13;;;;;;;8.40;5.53;;;6.80;89.80;;;;;;5007173;28;20184;-81
2023/01/05 06:30:38;;;;;;;9.63;6.07;;;6.80;90.00;;;;;;5006514;28;20191;-77
2023/01/05 06:33:04;;;;;;;11.10;5.83;;;6.80;90.10;;;;;;5000829;28;20177;-80
2023/01/05 06:35:30;;;;;;;8.47;6.37;;;6.80;90.10;;;;;;5006102;28;20185;-80
2023/01/05 06:37:55;;;;;;;11.47;6.50;;;6.90;90.40;;;;;;5005149;28;20208;-79
2023/01/05 06:40:21;;;;;;;10.30;6.60;;;7.00;90.60;;;;;;5005547;28;20208;-79
2023/01/05 06:42:47;;;;;;;11.13;6.97;;;7.10;91.20;;;;;;5004368;28;20622;-80
2023/01/05 06:45:14;;;;;;;10.90;6.20;;;7.20;91.30;;;;;;5007008;28;20219;-82
2023/01/05 06:47:39;;;;;;;15.40;6.47;;;7.30;91.70;;;;;;5005981;28;20263;-79
2023/01/05 06:50:06;;;;;;;8.20;5.77;;;7.40;91.90;;;;;;4994335;28;21059;-80
2023/01/05 06:52:38;;;;;;;8.87;5.90;;;7.60;91.90;;;;;;4992792;28;20899;-81
2023/01/05 06:55:05;;;;;;;11.97;6.60;;;7.70;91.90;;;;;;4987246;28;20752;-80
2023/01/05 06:57:31;;;;;;;11.97;6.93;;;7.90;91.80;;;;;;5004700;28;20177;-80
2023/01/05 06:59:57;;;;;;;16.30;6.97;;;8.00;91.60;;;;;;5004796;28;20192;-78
2023/01/05 07:02:22;;;;;;;12.00;7.37;;;8.10;91.20;;;;;;5004414;28;20197;-79
2023/01/05 07:04:48;;;;;;;14.40;6.93;;;8.20;90.80;;;;;;5010406;28;20599;-79
2023/01/05 07:07:15;;;;;;;14.53;8.43;;;8.20;90.20;;;;;;4988536;28;20186;-80
2023/01/05 07:09:41;;;;;;;18.27;8.93;;;8.20;89.60;;;;;;5000122;28;20196;-81
2023/01/05 07:12:07;;;;;;;12.90;8.03;;;8.20;89.30;;;;;;5004464;28;20223;-80
2023/01/05 07:14:33;;;;;;;13.43;7.10;;;8.20;89.30;;;;;;4999267;28;20187;-80
2023/01/05 07:16:59;;;;;;;10.77;7.17;;;8.20;89.50;;;;;;5003299;28;20177;-79
2023/01/05 07:19:25;;;;;;;15.20;8.00;;;8.20;89.60;;;;;;5011372;28;20214;-79
2023/01/05 07:21:50;;;;;;;17.47;8.43;;;8.20;89.70;;;;;;5003001;28;20768;-79
2023/01/05 07:24:16;;;;;;;13.13;8.17;;;8.20;89.50;;;;;;5003731;28;20212;-81
2023/01/05 07:26:42;;;;;;;12.50;7.10;;;8.20;89.20;;;;;;5004159;28;20181;-81
2023/01/05 07:29:07;;;;;;;22.07;8.17;;;8.20;88.90;;;;;;4992154;28;20181;-81
2023/01/05 07:31:33;;;;;;;14.30;8.00;;;8.20;88.80;;;;;;5003374;28;20180;-80
2023/01/05 07:33:59;;;;;;;15.50;8.77;;;8.20;88.90;;;;;;4987068;28;20192;-80
2023/01/05 07:36:24;;;;;;;13.67;8.33;;;8.20;88.80;;;;;;5003654;28;20216;-79
2023/01/05 07:38:51;;;;;;;23.90;9.70;;;8.20;88.40;;;;;;5006211;28;21031;-80
2023/01/05 07:41:17;;;;;;;14.77;8.90;;;8.10;88.60;;;;;;5014653;28;20184;-80
2023/01/05 07:43:43;;;;;;;14.30;8.47;;;8.00;88.70;;;;;;5005410;28;20188;-80
2023/01/05 07:46:08;;;;;;;16.77;9.03;;;8.00;88.90;;;;;;5004987;28;20240;-80
2023/01/05 07:48:34;;;;;;;16.10;8.83;;;8.00;89.40;;;;;;5004877;28;20180;-80
2023/01/05 07:51:04;;;;;;;17.80;9.27;;;8.20;89.80;;;;;;4999988;28;20182;-79
2023/01/05 07:53:33;;;;;;;12.63;7.93;;;8.30;90.50;;;;;;4981544;28;20242;-79
2023/01/05 07:56:00;;;;;;;14.57;9.27;;;8.60;91.40;;;;;;5005501;28;20196;-79
2023/01/05 07:58:27;;;;;;;13.20;8.67;;;9.00;91.70;;;;;;5004803;28;20773;-80
2023/01/05 08:00:53;;;;;;;15.27;8.40;;;9.40;91.70;;;;;;4997095;28;20685;-81
2023/01/05 08:03:19;;;;;;;15.07;9.30;;;10.00;92.30;;;;;;5000941;28;20661;-80
2023/01/05 08:05:45;;;;;;;18.50;9.33;;;10.60;92.10;;;;;;5005041;28;20212;-80
2023/01/05 08:08:11;;;;;;;14.25;8.60;;;11.10;89.90;;;;;;5007084;28;20200;-79
2023/01/05 08:10:38;;;;;;;14.63;8.57;;;11.70;89.00;;;;;;5021356;28;20174;-79
2023/01/05 08:15:52;;;;;;;17.75;9.57;;;12.50;84.20;;;;;;5003538;28;20239;-79
2023/01/05 08:18:18;;;;;;;13.93;8.13;;;12.90;83.00;;;;;;5004085;28;20183;-79
2023/01/05 08:20:53;;;;;;;12.50;8.57;;;13.20;80.90;;;;;;5015658;28;20196;-81
2023/01/05 08:23:19;;;;;;;16.02;8.00;;;13.40;80.40;;;;;;5005215;28;20172;-80
2023/01/05 08:25:44;;;;;;;15.52;8.48;;;13.60;80.30;;;;;;4992272;28;20720;-80
2023/01/05 08:28:10;;;;;;;14.82;8.77;;;13.90;79.20;;;;;;5007575;28;20187;-79
2023/01/05 08:30:36;;;;;;;15.30;8.57;;;14.20;78.60;;;;;;5014745;28;20264;-80
2023/01/05 08:33:02;;;;;;;15.27;9.35;;;14.50;77.50;;;;;;5010326;28;20239;-80
2023/01/05 08:35:27;;;;;;;13.60;8.23;;;14.80;75.90;;;;;;4995242;28;20689;-80
2023/01/05 08:37:53;;;;;;;15.82;8.73;;;15.10;77.00;;;;;;5006847;28;20189;-81
2023/01/05 08:40:19;;;;;;;14.63;8.60;;;15.50;76.30;;;;;;4996320;28;20275;-81
2023/01/05 08:42:47;;;;;;;15.18;8.52;;;16.00;74.20;;;;;;5020227;28;20568;-80
2023/01/05 08:45:14;;;;;;;13.48;9.00;;;16.30;73.80;;;;;;5014365;28;20582;-81
2023/01/05 08:47:40;;;;;;;12.77;9.05;;;16.70;74.30;;;;;;4994954;28;20173;-80
2023/01/05 08:50:08;;;;;;;16.20;9.63;;;17.10;73.40;;;;;;5001210;28;20213;-80
2023/01/05 08:52:35;;;;;;;13.52;9.43;;;17.60;72.20;;;;;;4989232;28;20200;-81
2023/01/05 08:55:00;;;;;;;14.63;9.82;;;18.10;71.00;;;;;;5009817;28;20391;-81
2023/01/05 08:57:26;;;;;;;17.42;10.32;;;18.60;69.70;;;;;;5010627;28;20185;-81
2023/01/05 08:59:52;;;;;;;14.63;10.38;;;19.00;68.30;;;;;;5013686;28;20268;-81
2023/01/05 09:02:18;;;;;;;13.73;9.88;;;19.30;67.80;;;;;;5004057;28;20215;-81
2023/01/05 09:04:43;;;;;;;14.13;9.35;;;19.50;65.70;;;;;;5009355;28;20208;-81
2023/01/05 09:07:09;;;;;;;12.50;10.05;;;19.70;65.20;;;;;;5002529;28;20184;-79
2023/01/05 09:09:35;;;;;;;15.57;10.15;;;19.70;65.10;;;;;;5008493;28;20181;-80
2023/01/05 09:12:00;;;;;;;14.27;9.68;;;19.70;64.80;;;;;;5015110;28;20219;-80
2023/01/05 09:14:26;;;;;;;16.13;9.95;;;19.60;64.00;;;;;;5007450;28;20192;-81
2023/01/05 09:16:52;;;;;;;15.80;9.82;;;19.40;64.20;;;;;;5001191;28;20264;-80
2023/01/05 09:19:17;;;;;;;17.60;10.63;;;19.20;64.60;;;;;;5006999;28;20181;-80
2023/01/05 09:21:43;;;;;;;12.45;9.23;;;19.10;64.30;;;;;;5000236;28;20184;-80
2023/01/05 09:24:13;;;;;;;9.23;8.30;;;19.10;64.50;;;;;;5005834;28;20288;-80
2023/01/05 09:26:40;;;;;;;11.48;8.50;;;19.10;63.90;;;;;;5008308;28;20212;-80
2023/01/05 09:29:06;;;;;;;14.60;9.57;;;19.20;61.80;;;;;;5005978;28;20826;-80
2023/01/05 09:31:32;;;;;;;11.77;9.13;;;19.20;63.60;;;;;;5007154;28;20233;-80
2023/01/05 09:33:58;;;;;;;14.02;10.45;;;19.20;63.10;;;;;;5005453;28;20184;-80
2023/01/05 09:36:24;;;;;;;9.82;8.25;;;19.20;63.60;;;;;;5005470;28;20185;-82
2023/01/05 09:38:52;;;;;;;13.50;8.73;;;19.30;63.10;;;;;;5004915;28;20181;-81
2023/01/05 09:41:23;;;;;;;13.85;9.63;;;19.40;63.20;;;;;;4997862;28;20181;-81
2023/01/05 09:43:56;;;;;;;14.88;9.23;;;19.60;63.20;;;;;;5021851;28;20189;-82
2023/01/05 09:46:27;;;;;;;13.25;9.27;;;19.90;62.90;;;;;;5002323;28;20190;-81
2023/01/05 09:48:57;;;;;;;12.55;8.10;;;20.10;61.70;;;;;;5000235;28;20189;-81
2023/01/05 09:51:24;;;;;;;13.98;9.13;;;20.20;61.80;;;;;;5005842;28;20169;-79
2023/01/05 09:53:50;;;;;;;10.90;8.98;;;20.40;61.30;;;;;;5005792;28;20185;-80
2023/01/05 09:56:33;;;;;;;10.73;8.50;;;20.60;61.00;;;;;;5006891;28;20189;-80
2023/01/05 09:59:06;;;;;;;11.23;8.73;;;20.50;59.60;;;;;;5000508;28;20177;-79
2023/01/05 10:01:36;;;;;;;12.68;8.88;;;20.20;59.90;;;;;;5003699;28;20204;-81
2023/01/05 10:04:09;;;;;;;12.68;9.15;;;20.10;61.60;;;;;;5011422;28;20192;-80
2023/01/05 10:06:38;;;;;;;15.20;9.27;;;20.00;60.30;;;;;;5007930;28;20177;-81
2023/01/05 10:09:05;;;;;;;12.20;8.90;;;19.80;60.50;;;;;;5006186;28;20188;-80
2023/01/05 10:15:09;;;;;;;10.00;8.23;;;19.60;60.20;;;;;;4946496;28;20237;-79
2023/01/05 10:17:38;;;;;;;11.57;7.57;;;19.60;61.60;;;;;;4950282;28;20775;-81
2023/01/05 10:20:12;;;;;;;13.57;8.63;;;19.60;61.70;;;;;;4948085;28;20274;-80
2023/01/05 10:22:47;;;;;;;15.20;8.60;;;19.80;61.50;;;;;;4946463;28;20701;-80
2023/01/05 10:25:31;;;;;;;10.82;8.68;;;20.00;61.20;;;;;;4947317;28;20241;-81
2023/01/05 10:28:17;;;;;;;12.20;8.00;;;20.20;60.60;;;;;;4943865;28;20606;-81
2023/01/05 10:30:58;;;;;;;10.57;8.18;;;20.50;59.30;;;;;;4951404;28;20221;-80
2023/01/05 10:33:43;;;;;;;11.52;8.80;;;20.60;59.80;;;;;;4943123;28;20199;-80
2023/01/05 10:36:21;;;;;;;9.48;8.30;;;20.60;58.60;;;;;;4943997;29;20334;-81
2023/01/05 10:39:02;;;;;;;12.95;9.48;;;20.70;59.40;;;;;;4951281;28;20198;-80
2023/01/05 10:41:55;;;;;;;11.52;8.05;;;21.00;58.50;;;;;;4936317;28;20226;-80
2023/01/05 10:44:58;;;;;;;12.32;8.35;;;21.00;57.80;;;;;;4943425;28;20245;-81
2023/01/05 10:47:27;;;;;;;9.40;8.40;;;21.10;57.30;;;;;;4937343;28;20186;-81
2023/01/05 10:49:53;;;;;;;11.48;7.93;;;21.00;57.80;;;;;;4952679;28;21091;-80
2023/01/05 10:52:21;;;;;;;10.32;8.82;;;21.10;57.80;;;;;;5003576;28;20235;-81
2023/01/05 10:54:59;;;;;;;10.38;7.88;;;21.20;58.10;;;;;;5004684;28;20209;-80
2023/01/05 10:57:27;;;;;;;10.25;8.25;;;21.50;57.00;;;;;;5005720;28;20247;-81
2023/01/05 11:00:05;;;;;;;12.70;9.23;;;21.60;56.20;;;;;;5004869;28;20256;-80
2023/01/05 11:02:40;;;;;;;9.35;8.07;;;21.60;56.90;;;;;;4998717;28;20192;-79
2023/01/05 11:05:38;;;;;;;9.88;8.32;;;21.70;58.10;;;;;;5005328;28;20227;-80
2023/01/05 11:08:12;;;;;;;11.48;8.38;;;22.10;58.20;;;;;;4983715;28;20185;-80
2023/01/05 11:10:49;;;;;;;8.77;7.45;;;22.50;55.30;;;;;;5001832;28;20216;-80
2023/01/05 11:13:14;;;;;;;14.38;8.57;;;22.70;55.50;;;;;;4999978;28;20189;-80
2023/01/05 11:15:43;;;;;;;10.05;7.90;;;22.90;55.80;;;;;;4996148;28;20580;-81
2023/01/05 11:18:49;;;;;;;7.95;7.07;;;23.00;55.60;;;;;;4996374;28;20251;-80
2023/01/05 11:21:20;;;;;;;9.02;7.50;;;23.10;53.10;;;;;;5026786;28;20197;-81
2023/01/05 11:23:56;;;;;;;9.52;8.55;;;22.90;54.50;;;;;;5020938;28;20177;-78
2023/01/05 11:26:36;;;;;;;9.88;8.85;;;22.70;53.80;;;;;;5020347;28;20630;-79
2023/01/05 11:29:01;;;;;;;11.85;8.52;;;22.60;55.00;;;;;;5008333;28;20189;-81
2023/01/05 11:31:46;;;;;;;11.18;7.53;;;22.50;55.30;;;;;;5005168;28;20894;-82
2023/01/05 11:34:27;;;;;;;9.77;7.43;;;22.40;54.70;;;;;;4997609;28;20267;-81
2023/01/05 11:36:58;;;;;;;9.82;8.20;;;22.50;55.30;;;;;;5009566;28;20695;-81
2023/01/05 11:39:32;;;;;;;8.88;7.57;;;22.70;55.30;;;;;;5009908;28;20185;-80
2023/01/05 11:42:14;;;;;;;8.30;7.28;;;22.60;54.90;;;;;;5005438;28;20661;-81
2023/01/05 11:44:56;;;;;;;9.85;7.47;;;22.40;54.30;;;;;;4997241;28;20587;-81
2023/01/05 11:47:30;;;;;;;10.45;7.85;;;22.40;55.30;;;;;;5009095;28;20278;-81
2023/01/05 11:50:05;;;;;;;9.93;8.02;;;22.30;56.10;;;;;;5007557;28;20271;-79
2023/01/05 11:52:47;;;;;;;12.90;8.25;;;22.30;55.30;;;;;;5001502;28;20243;-81
2023/01/05 11:55:19;;;;;;;7.78;7.07;;;22.20;54.80;;;;;;5003527;28;20794;-81
2023/01/05 11:57:49;;;;;;;9.93;7.10;;;22.00;56.20;;;;;;5004342;28;20219;-79
2023/01/05 12:00:33;;;;;;;9.05;6.80;;;21.80;56.00;;;;;;5004455;28;20177;-81
2023/01/05 12:03:14;;;;;;;9.32;6.57;;;21.60;55.40;;;;;;5007126;28;20224;-79
2023/01/05 12:05:49;;;;;;;6.97;6.28;;;21.80;56.20;;;;;;5006680;28;20252;-79
2023/01/05 12:08:29;;;;;;;6.88;5.57;;;22.00;55.50;;;;;;5014832;28;20597;-80
2023/01/05 12:11:12;;;;;;;5.80;5.20;;;22.20;55.50;;;;;;5009140;28;20208;-81
2023/01/05 12:14:05;;;;;;;5.88;5.00;;;21.70;54.80;;;;;;4996974;28;20212;-80
2023/01/05 12:16:33;;;;;;;11.60;5.78;;;21.70;55.10;;;;;;5008551;28;20189;-79
2023/01/05 12:19:23;;;;;;;6.30;5.70;;;21.40;54.90;;;;;;5008684;28;20242;-79
2023/01/05 12:22:12;;;;;;;6.78;5.07;;;21.20;55.10;;;;;;5007012;28;20173;-78
2023/01/05 12:24:56;;;;;;;4.63;4.28;;;21.20;54.90;;;;;;5005769;28;20605;-78
2023/01/05 12:27:40;;;;;;;5.15;4.57;;;21.10;53.90;;;;;;5005575;28;21092;-81
2023/01/05 12:30:15;;;;;;;4.93;4.53;;;20.80;53.70;;;;;;5001879;28;20275;-79
2023/01/05 12:33:02;;;;;;;4.25;3.92;;;20.40;55.20;;;;;;5001129;28;20666;-80
2023/01/05 12:36:01;;;;;;;3.38;3.05;;;20.10;56.60;;;;;;5019293;28;20573;-81
2023/01/05 12:39:06;;;;;;;2.60;2.40;;;20.00;55.50;;;;;;4999876;28;20204;-79
2023/01/05 12:41:53;;;;;;;2.60;2.50;;;19.90;55.40;;;;;;4996305;28;20205;-81
2023/01/05 12:44:58;;;;;;;2.47;2.28;;;19.60;54.20;;;;;;5018727;28;20217;-79
2023/01/05 12:47:44;;;;;;;2.10;2.00;;;19.20;54.90;;;;;;5011600;28;20740;-79
2023/01/05 12:50:48;;;;;;;2.97;2.60;;;18.80;55.70;;;;;;5007681;28;20622;-80
2023/01/05 12:53:32;;;;;;;2.40;2.20;;;18.60;56.10;;;;;;4959883;28;20201;-80
2023/01/05 12:56:07;;;;;;;8.75;2.42;;;18.30;56.70;;;;;;4954518;28;20218;-80
2023/01/05 12:58:40;;;;;;;2.08;1.98;;;17.90;57.30;;;;;;4979297;28;20867;-81
2023/01/05 13:01:16;;;;;;;3.35;3.15;;;17.80;58.30;;;;;;4965586;28;20198;-81
2023/01/05 13:03:51;;;;;;;4.47;3.50;;;17.60;58.10;;;;;;4970364;28;20209;-81
2023/01/05 13:06:22;;;;;;;5.22;2.80;;;17.50;58.90;;;;;;4970485;28;20222;-80
2023/01/05 13:09:11;;;;;;;3.60;2.78;;;17.50;58.90;;;;;;4958464;28;20264;-80
2023/01/05 13:12:07;;;;;;;2.55;2.42;;;17.70;59.20;;;;;;4974408;28;20190;-80
2023/01/05 13:14:38;;;;;;;2.50;2.30;;;18.00;59.10;;;;;;4956556;28;20693;-81
2023/01/05 13:17:25;;;;;;;2.20;2.10;;;18.30;57.90;;;;;;4967267;28;20205;-81
2023/01/05 13:20:09;;;;;;;1.95;1.85;;;18.50;57.90;;;;;;4959130;28;20770;-83
2023/01/05 13:22:39;;;;;;;3.28;2.97;;;18.70;57.80;;;;;;4969627;28;20686;-81
2023/01/05 13:25:24;;;;;;;4.03;3.67;;;18.80;58.60;;;;;;4965779;28;20218;-81
2023/01/05 13:27:49;;;;;;;3.50;3.30;;;19.00;58.10;;;;;;4964638;28;20198;-81
2023/01/05 13:30:41;;;;;;;3.65;3.35;;;19.10;58.70;;;;;;4992426;28;20637;-81
2023/01/05 13:33:58;;;;;;;3.78;3.47;;;19.20;58.40;;;;;;5003576;28;20197;-80
2023/01/05 13:36:48;;;;;;;3.38;3.17;;;19.30;58.40;;;;;;4925146;29;20278;-80
2023/01/05 13:39:39;;;;;;;4.30;3.20;;;19.30;58.80;;;;;;4926872;29;20269;-80
2023/01/05 13:42:05;;;;;;;2.83;2.67;;;;;;;;;;4927422;29;20206;-81
2023/01/05 13:44:31;;;;;;;2.97;2.78;;;19.50;58.00;;;;;;4932001;29;20251;-80